Time,TemperatureF,DewpointF,PressureIn,WindDirection,WindDirectionDegrees,WindSpeedMPH,WindSpeedGustMPH,Humidity,HourlyPrecipIn,Conditions,Clouds,dailyrainin,SoftwareType,DateUTC
2013-06-20 00:00:00,56.6,54.0,30.01,SSW,202,0.0,0.0,91,0.00,,SKC,0.00,VWS V14.01,2013-06-20 05:00:00,
2013-06-20 00:05:00,56.5,54.2,30.01,SSW,202,0.0,0.0,92,0.00,,SKC,0.00,VWS V14.01,2013-06-20 05:05:00,
2013-06-20 00:10:00,56.5,54.2,30.01,SSW,202,0.0,0.0,92,0.00,,SKC,0.00,VWS V14.01,2013-06-20 05:10:00,
2013-06-20 00:15:00,56.4,54.1,30.02,SSW,202,0.0,0.0,92,0.00,,SKC,0.00,VWS V14.01,2013-06-20 05:15:00,
2013-06-20 00:20:00,56.4,54.1,30.02,SSW,202,0.0,0.0,92,0.00,,SKC,0.00,VWS V14.01,2013-06-20 05:20:00,
2013-06-20 00:25:00,56.3,54.0,30.02,SSW,202,0.0,0.0,92,0.00,,SKC,0.00,VWS V14.01,2013-06-20 05:25:00,
2013-06-20 00:30:00,56.3,54.0,30.02,SSW,202,0.0,0.0,92,0.00,,SKC,0.00,VWS V14.01,2013-06-20 05:30:00,
2013-06-20 00:35:00,56.2,53.9,30.02,SSW,202,0.0,0.0,92,0.00,,SKC,0.00,VWS V14.01,2013-06-20 05:35:00,
2013-06-20 00:40:00,56.1,53.8,30.02,SSW,202,0.0,0.0,92,0.00,,SKC,0.00,VWS V14.01,2013-06-20 05:40:00,
2013-06-20 00:45:00,56.0,53.7,30.02,SSW,202,0.0,0.0,92,0.00,,SKC,0.00,VWS V14.01,2013-06-20 05:45:00,
2013-06-20 00:50:00,55.9,53.9,30.02,SSW,202,0.0,0.0,93,0.00,,SKC,0.00,VWS V14.01,2013-06-20 05:50:00,
2013-06-20 00:55:00,55.8,53.8,30.02,SSW,202,0.0,0.0,93,0.00,,SKC,0.00,VWS V14.01,2013-06-20 05:55:00,
2013-06-20 01:00:00,55.6,53.6,30.01,SSW,202,0.0,0.0,93,0.00,,SKC,0.00,VWS V14.01,2013-06-20 06:00:00,
2013-06-20 01:05:00,55.4,53.4,30.01,SSW,202,0.0,0.0,93,0.00,,SKC,0.00,VWS V14.01,2013-06-20 06:05:00,
2013-06-20 01:10:00,55.3,53.3,30.01,SSW,202,0.0,0.0,93,0.00,,SKC,0.00,VWS V14.01,2013-06-20 06:10:00,
2013-06-20 01:15:00,55.1,53.1,30.01,SSW,202,0.0,0.0,93,0.00,,SKC,0.00,VWS V14.01,2013-06-20 06:15:00,
2013-06-20 01:20:00,55.0,53.0,30.01,SSW,202,0.0,0.0,93,0.00,,SKC,0.00,VWS V14.01,2013-06-20 06:20:00,
2013-06-20 01:25:00,54.9,52.9,30.01,SSW,202,0.0,0.0,93,0.00,,SKC,0.00,VWS V14.01,2013-06-20 06:25:00,
2013-06-20 01:30:00,54.8,52.8,30.01,SSW,202,0.0,0.0,93,0.00,,SKC,0.00,VWS V14.01,2013-06-20 06:30:00,
2013-06-20 01:35:00,54.8,53.1,30.01,SSW,202,0.0,0.0,94,0.00,,SKC,0.00,VWS V14.01,2013-06-20 06:35:00,
2013-06-20 01:40:00,54.7,53.0,30.01,SSW,202,0.0,0.0,94,0.00,,SKC,0.00,VWS V14.01,2013-06-20 06:40:00,
2013-06-20 01:45:00,54.6,52.9,30.01,SSW,202,0.0,0.0,94,0.00,,SKC,0.00,VWS V14.01,2013-06-20 06:45:00,
2013-06-20 01:50:00,54.5,52.8,30.01,SSW,202,0.0,0.0,94,0.00,,SKC,0.00,VWS V14.01,2013-06-20 06:50:00,
2013-06-20 01:55:00,54.3,52.3,30.01,SSW,202,0.0,0.0,93,0.00,,SKC,0.00,VWS V14.01,2013-06-20 06:55:00,
2013-06-20 02:00:00,54.3,52.6,30.01,SSW,202,0.0,0.0,94,0.00,,SKC,0.00,VWS V14.01,2013-06-20 07:00:00,
2013-06-20 02:05:00,54.2,52.5,30.01,SSW,202,0.0,0.0,94,0.00,,SKC,0.00,VWS V14.01,2013-06-20 07:05:00,
2013-06-20 02:10:00,54.2,52.5,30.01,SSW,202,0.0,0.0,94,0.00,,SKC,0.00,VWS V14.01,2013-06-20 07:10:00,
2013-06-20 02:15:00,54.1,52.4,30.01,SSW,202,0.0,0.0,94,0.00,,SKC,0.00,VWS V14.01,2013-06-20 07:15:00,
2013-06-20 02:20:00,54.0,52.3,30.01,SSW,202,0.0,0.0,94,0.00,,SKC,0.00,VWS V14.01,2013-06-20 07:20:00,
2013-06-20 02:25:00,53.9,52.2,30.01,SSW,202,0.0,0.0,94,0.00,,SKC,0.00,VWS V14.01,2013-06-20 07:25:00,
2013-06-20 02:30:00,53.9,52.2,30.01,SSW,202,0.0,0.0,94,0.00,,SKC,0.00,VWS V14.01,2013-06-20 07:30:00,
2013-06-20 02:35:00,53.8,52.1,30.01,SSW,202,0.0,0.0,94,0.00,,SKC,0.00,VWS V14.01,2013-06-20 07:35:00,
2013-06-20 02:40:00,53.7,52.0,30.01,SSW,202,0.0,0.0,94,0.00,,SKC,0.00,VWS V14.01,2013-06-20 07:40:00,
2013-06-20 02:45:00,53.6,51.9,30.01,SSW,202,0.0,0.0,94,0.00,,SKC,0.00,VWS V14.01,2013-06-20 07:45:00,
2013-06-20 02:50:00,53.5,51.8,30.01,SSW,202,0.0,0.0,94,0.00,,SKC,0.00,VWS V14.01,2013-06-20 07:50:00,
2013-06-20 02:55:00,53.6,51.9,30.01,SSW,202,0.0,0.0,94,0.00,,SKC,0.00,VWS V14.01,2013-06-20 07:55:00,
2013-06-20 03:00:00,53.6,52.2,30.01,SSW,202,0.0,0.0,95,0.00,,SKC,0.00,VWS V14.01,2013-06-20 08:00:00,
2013-06-20 03:05:00,53.6,52.2,30.01,SSW,202,0.0,0.0,95,0.00,,SKC,0.00,VWS V14.01,2013-06-20 08:05:00,
2013-06-20 03:10:00,53.6,51.9,30.01,SSW,202,0.0,0.0,94,0.00,,SKC,0.00,VWS V14.01,2013-06-20 08:10:00,
2013-06-20 03:15:00,53.4,51.7,30.01,SSW,202,0.0,0.0,94,0.00,,SKC,0.00,VWS V14.01,2013-06-20 08:15:00,
2013-06-20 03:20:00,53.3,51.6,30.01,SSW,202,0.0,0.0,94,0.00,,SKC,0.00,VWS V14.01,2013-06-20 08:20:00,
2013-06-20 03:25:00,53.3,51.6,30.01,SSW,202,0.0,0.0,94,0.00,,SKC,0.00,VWS V14.01,2013-06-20 08:25:00,
2013-06-20 03:30:00,53.2,51.5,30.01,SSW,202,0.0,0.0,94,0.00,,SKC,0.00,VWS V14.01,2013-06-20 08:30:00,
2013-06-20 03:35:00,53.2,51.8,30.01,SSW,202,0.0,0.0,95,0.00,,SKC,0.00,VWS V14.01,2013-06-20 08:35:00,
2013-06-20 03:40:00,53.3,51.9,30.01,SSW,202,0.0,0.0,95,0.00,,SKC,0.00,VWS V14.01,2013-06-20 08:40:00,
2013-06-20 03:45:00,53.3,51.9,30.01,SSW,202,0.0,0.0,95,0.00,,SKC,0.00,VWS V14.01,2013-06-20 08:45:00,
2013-06-20 03:50:00,53.5,52.1,30.01,SSW,202,0.0,0.0,95,0.00,,SKC,0.00,VWS V14.01,2013-06-20 08:50:00,
2013-06-20 03:55:00,53.7,52.3,30.01,SSW,202,0.0,0.0,95,0.00,,SKC,0.00,VWS V14.01,2013-06-20 08:55:00,
2013-06-20 04:00:00,54.0,52.6,30.01,SSW,202,0.0,0.0,95,0.00,,SKC,0.00,VWS V14.01,2013-06-20 09:00:00,
2013-06-20 04:05:00,54.2,52.8,30.01,SSW,202,0.0,0.0,95,0.00,,SKC,0.00,VWS V14.01,2013-06-20 09:05:00,
2013-06-20 04:10:00,54.3,52.9,30.01,SSW,202,0.0,0.0,95,0.00,,SKC,0.00,VWS V14.01,2013-06-20 09:10:00,
2013-06-20 04:15:00,54.5,52.8,30.01,SSW,202,0.0,0.0,94,0.00,,SKC,0.00,VWS V14.01,2013-06-20 09:15:00,
2013-06-20 04:20:00,54.5,52.8,30.01,SSW,202,0.0,0.0,94,0.00,,SKC,0.00,VWS V14.01,2013-06-20 09:20:00,
2013-06-20 04:25:00,54.5,52.5,30.01,SSW,202,0.0,0.0,93,0.00,,SKC,0.00,VWS V14.01,2013-06-20 09:25:00,
2013-06-20 04:30:00,54.3,52.3,30.02,SSW,202,0.0,0.0,93,0.00,,SKC,0.00,VWS V14.01,2013-06-20 09:30:00,
2013-06-20 04:35:00,54.4,52.7,30.02,SSW,202,0.0,0.0,94,0.00,,SKC,0.00,VWS V14.01,2013-06-20 09:35:00,
2013-06-20 04:40:00,54.4,52.4,30.02,SSW,202,0.0,0.0,93,0.00,,SKC,0.00,VWS V14.01,2013-06-20 09:40:00,
2013-06-20 04:45:00,54.3,52.3,30.03,SSW,202,0.0,0.0,93,0.00,,SKC,0.00,VWS V14.01,2013-06-20 09:45:00,
2013-06-20 04:50:00,54.2,52.5,30.03,SSW,202,0.0,0.0,94,0.00,,SKC,0.00,VWS V14.01,2013-06-20 09:50:00,
2013-06-20 04:55:00,54.0,52.3,30.03,SSW,202,0.0,0.0,94,0.00,,SKC,0.00,VWS V14.01,2013-06-20 09:55:00,
2013-06-20 05:00:00,53.9,52.2,30.02,SSW,202,0.0,0.0,94,0.00,,SKC,0.00,VWS V14.01,2013-06-20 10:00:00,
2013-06-20 05:05:00,53.7,52.0,30.02,SSW,202,0.0,0.0,94,0.00,,SKC,0.00,VWS V14.01,2013-06-20 10:05:00,
2013-06-20 05:10:00,53.6,51.9,30.02,SSW,202,0.0,0.0,94,0.00,,SKC,0.00,VWS V14.01,2013-06-20 10:10:00,
2013-06-20 05:15:00,53.6,52.2,30.02,SSW,202,0.0,0.0,95,0.00,,SKC,0.00,VWS V14.01,2013-06-20 10:15:00,
2013-06-20 05:20:00,53.6,52.2,30.02,SSW,202,0.0,0.0,95,0.00,,SKC,0.00,VWS V14.01,2013-06-20 10:20:00,
2013-06-20 05:25:00,53.5,51.8,30.02,SSW,202,0.0,0.0,94,0.00,,SKC,0.00,VWS V14.01,2013-06-20 10:25:00,
2013-06-20 05:30:00,53.4,52.0,30.02,SSW,202,0.0,0.0,95,0.00,,SKC,0.00,VWS V14.01,2013-06-20 10:30:00,
2013-06-20 05:35:00,53.4,52.0,30.02,SSW,202,0.0,0.0,95,0.00,,SKC,0.00,VWS V14.01,2013-06-20 10:35:00,
2013-06-20 05:40:00,53.4,52.0,30.02,SSW,202,0.0,0.0,95,0.00,,SKC,0.00,VWS V14.01,2013-06-20 10:40:00,
2013-06-20 05:45:00,53.3,51.9,30.02,SSW,202,0.0,0.0,95,0.00,,SKC,0.00,VWS V14.01,2013-06-20 10:45:00,
2013-06-20 05:50:00,53.3,51.9,30.02,SSW,202,0.0,0.0,95,0.00,,SKC,0.00,VWS V14.01,2013-06-20 10:50:00,
2013-06-20 05:55:00,53.3,51.9,30.02,SSW,202,0.0,0.0,95,0.00,,SKC,0.00,VWS V14.01,2013-06-20 10:55:00,
2013-06-20 06:00:00,53.3,51.9,30.02,SSW,202,0.0,0.0,95,0.00,,SKC,0.00,VWS V14.01,2013-06-20 11:00:00,
2013-06-20 06:05:00,53.4,52.0,30.02,SSW,202,0.0,0.0,95,0.00,,SKC,0.00,VWS V14.01,2013-06-20 11:05:00,
2013-06-20 06:10:00,53.6,52.2,30.02,SSW,202,0.0,0.0,95,0.00,,SKC,0.00,VWS V14.01,2013-06-20 11:10:00,
2013-06-20 06:28:00,55.1,53.7,30.02,NW,309,0.0,0.0,95,0.00,,SKC,0.00,VWS V14.01,2013-06-20 11:28:00,
2013-06-20 06:30:00,55.3,53.9,30.02,NW,307,0.0,0.0,95,0.00,,SKC,0.00,VWS V14.01,2013-06-20 11:30:00,
2013-06-20 06:33:00,55.5,53.8,30.02,NW,307,0.0,0.0,94,0.00,,SKC,0.00,VWS V14.01,2013-06-20 11:33:00,
2013-06-20 06:35:00,55.7,54.0,30.02,NW,307,0.0,0.0,94,0.00,,SKC,0.00,VWS V14.01,2013-06-20 11:35:00,
2013-06-20 06:38:00,55.9,54.2,30.02,NW,307,0.0,0.0,94,0.00,,SKC,0.00,VWS V14.01,2013-06-20 11:38:00,
2013-06-20 06:40:00,56.1,54.1,30.02,NW,307,0.0,0.0,93,0.00,,SKC,0.00,VWS V14.01,2013-06-20 11:40:00,
2013-06-20 06:43:00,56.6,54.6,30.02,NW,307,0.0,0.0,93,0.00,,SKC,0.00,VWS V14.01,2013-06-20 11:43:00,
2013-06-20 06:45:00,56.8,54.5,30.01,NW,306,0.0,0.0,92,0.00,,SKC,0.00,VWS V14.01,2013-06-20 11:45:00,
2013-06-20 06:48:00,57.4,54.8,30.01,NW,307,0.0,0.0,91,0.00,,SKC,0.00,VWS V14.01,2013-06-20 11:48:00,
2013-06-20 06:50:00,57.9,55.0,30.01,NW,307,0.0,0.0,90,0.00,,SKC,0.00,VWS V14.01,2013-06-20 11:50:00,
2013-06-20 06:53:00,58.9,55.7,30.01,NW,307,0.0,0.0,89,0.00,,SKC,0.00,VWS V14.01,2013-06-20 11:53:00,
2013-06-20 06:55:00,59.5,56.0,30.01,NW,307,0.0,0.0,88,0.00,,SKC,0.00,VWS V14.01,2013-06-20 11:55:00,
2013-06-20 06:58:00,60.5,56.3,30.01,NW,307,0.0,0.0,86,0.00,,SKC,0.00,VWS V14.01,2013-06-20 11:58:00,
2013-06-20 07:00:00,60.9,56.7,30.01,NW,307,0.0,0.0,86,0.00,,SKC,0.00,VWS V14.01,2013-06-20 12:00:00,
2013-06-20 07:03:00,61.4,56.9,30.01,NW,307,0.0,0.0,85,0.00,,SKC,0.00,VWS V14.01,2013-06-20 12:03:00,
2013-06-20 07:05:00,61.5,57.0,30.01,NW,307,0.0,0.0,85,0.00,,SKC,0.00,VWS V14.01,2013-06-20 12:05:00,
2013-06-20 07:08:00,62.0,56.8,30.01,NW,310,0.0,0.0,83,0.00,,SKC,0.00,VWS V14.01,2013-06-20 12:08:00,
2013-06-20 07:10:00,62.2,57.0,30.01,NW,310,0.0,0.0,83,0.00,,SKC,0.00,VWS V14.01,2013-06-20 12:10:00,
2013-06-20 07:13:00,62.7,57.1,30.01,NW,310,0.0,0.0,82,0.00,,SKC,0.00,VWS V14.01,2013-06-20 12:13:00,
2013-06-20 07:15:00,62.9,57.7,30.01,NW,309,0.0,0.0,83,0.00,,SKC,0.00,VWS V14.01,2013-06-20 12:15:00,
2013-06-20 07:18:00,63.6,57.7,30.01,SSE,167,1.0,1.0,81,0.00,,SKC,0.00,VWS V14.01,2013-06-20 12:18:00,
2013-06-20 07:20:00,63.9,57.6,30.01,SSE,165,0.0,1.0,80,0.00,,SKC,0.00,VWS V14.01,2013-06-20 12:20:00,
2013-06-20 07:23:00,64.7,58.4,30.01,SSE,165,0.0,0.0,80,0.00,,SKC,0.00,VWS V14.01,2013-06-20 12:23:00,
2013-06-20 07:25:00,65.0,58.7,30.01,SSE,165,0.0,0.0,80,0.00,,SKC,0.00,VWS V14.01,2013-06-20 12:25:00,
2013-06-20 07:28:00,65.7,58.7,30.01,SSE,165,0.0,0.0,78,0.00,,SKC,0.00,VWS V14.01,2013-06-20 12:28:00,
2013-06-20 07:30:00,65.9,58.8,30.02,South,169,0.0,0.0,78,0.00,,SKC,0.00,VWS V14.01,2013-06-20 12:30:00,
2013-06-20 07:33:00,66.8,58.6,30.02,SW,230,2.0,5.0,75,0.00,,SKC,0.00,VWS V14.01,2013-06-20 12:33:00,
2013-06-20 07:35:00,66.9,59.1,30.02,WSW,241,0.0,5.0,76,0.00,,SKC,0.00,VWS V14.01,2013-06-20 12:35:00,
2013-06-20 07:38:00,67.1,58.9,30.02,West,259,0.0,2.0,75,0.00,,SKC,0.00,VWS V14.01,2013-06-20 12:38:00,
2013-06-20 07:40:00,67.2,59.0,30.02,West,276,0.0,2.0,75,0.00,,SKC,0.00,VWS V14.01,2013-06-20 12:40:00,
2013-06-20 07:43:00,67.2,59.4,30.02,West,274,0.0,0.0,76,0.00,,SKC,0.00,VWS V14.01,2013-06-20 12:43:00,
2013-06-20 07:45:00,67.2,59.4,30.02,West,275,0.0,0.0,76,0.00,,SKC,0.00,VWS V14.01,2013-06-20 12:45:00,
2013-06-20 07:48:00,67.1,58.9,30.02,SSE,167,0.0,0.0,75,0.00,,SKC,0.00,VWS V14.01,2013-06-20 12:48:00,
2013-06-20 07:50:00,67.2,59.0,30.02,SSE,167,0.0,0.0,75,0.00,,SKC,0.00,VWS V14.01,2013-06-20 12:50:00,
2013-06-20 07:53:00,67.2,59.0,30.02,WSW,242,0.0,0.0,75,0.00,,SKC,0.00,VWS V14.01,2013-06-20 12:53:00,
2013-06-20 07:55:00,67.3,59.1,30.02,SSE,167,1.0,1.0,75,0.00,,SKC,0.00,VWS V14.01,2013-06-20 12:55:00,
2013-06-20 07:58:00,67.3,58.4,30.02,West,271,1.0,3.0,73,0.00,,SKC,0.00,VWS V14.01,2013-06-20 12:58:00,
2013-06-20 08:00:00,67.3,58.7,30.03,WSW,245,0.0,3.0,74,0.00,,SKC,0.00,VWS V14.01,2013-06-20 13:00:00,
2013-06-20 08:03:00,67.5,58.5,30.03,SE,146,4.0,4.0,73,0.00,,SKC,0.00,VWS V14.01,2013-06-20 13:03:00,
2013-06-20 08:05:00,67.6,59.0,30.03,NNW,344,0.0,4.0,74,0.00,,SKC,0.00,VWS V14.01,2013-06-20 13:05:00,
2013-06-20 08:08:00,67.9,58.9,30.03,West,273,1.0,2.0,73,0.00,,SKC,0.00,VWS V14.01,2013-06-20 13:08:00,
2013-06-20 08:10:00,68.0,59.0,30.03,West,264,1.0,2.0,73,0.00,,SKC,0.00,VWS V14.01,2013-06-20 13:10:00,
2013-06-20 08:14:00,68.3,58.5,30.03,WNW,288,2.0,6.0,71,0.00,,SKC,0.00,VWS V14.01,2013-06-20 13:14:00,
2013-06-20 08:15:00,68.4,58.6,30.02,West,267,1.0,6.0,71,0.00,,SKC,0.00,VWS V14.01,2013-06-20 13:15:00,
2013-06-20 08:19:00,68.8,59.0,30.02,West,263,1.0,3.0,71,0.00,,SKC,0.00,VWS V14.01,2013-06-20 13:19:00,
2013-06-20 08:20:00,68.9,58.7,30.02,South,184,2.0,3.0,70,0.00,,SKC,0.00,VWS V14.01,2013-06-20 13:20:00,
2013-06-20 08:24:00,69.4,59.2,30.02,West,264,1.0,5.0,70,0.00,,SKC,0.00,VWS V14.01,2013-06-20 13:24:00,
2013-06-20 08:25:00,69.6,59.0,30.02,West,259,3.0,5.0,69,0.00,,SKC,0.00,VWS V14.01,2013-06-20 13:25:00,
2013-06-20 08:29:00,69.9,59.3,30.02,West,277,2.0,5.0,69,0.00,,SKC,0.00,VWS V14.01,2013-06-20 13:29:00,
2013-06-20 08:30:00,69.9,59.3,30.02,South,178,2.0,5.0,69,0.00,,SKC,0.00,VWS V14.01,2013-06-20 13:30:00,
2013-06-20 08:34:00,69.9,59.3,30.02,SE,137,1.0,6.0,69,0.00,,SKC,0.00,VWS V14.01,2013-06-20 13:34:00,
2013-06-20 08:35:00,69.9,58.9,30.02,SSE,149,1.0,6.0,68,0.00,,SKC,0.00,VWS V14.01,2013-06-20 13:35:00,
2013-06-20 08:39:00,69.9,59.7,30.02,SW,223,1.0,1.0,70,0.00,,SKC,0.00,VWS V14.01,2013-06-20 13:39:00,
2013-06-20 08:40:00,69.9,59.7,30.02,SW,214,2.0,5.0,70,0.00,,SKC,0.00,VWS V14.01,2013-06-20 13:40:00,
2013-06-20 08:44:00,69.7,59.1,30.02,WSW,241,1.0,4.0,69,0.00,,SKC,0.00,VWS V14.01,2013-06-20 13:44:00,
2013-06-20 08:45:00,69.6,59.0,30.02,South,180,0.0,4.0,69,0.00,,SKC,0.00,VWS V14.01,2013-06-20 13:45:00,
2013-06-20 08:49:00,69.6,59.8,30.02,West,280,1.0,2.0,71,0.00,,SKC,0.00,VWS V14.01,2013-06-20 13:49:00,
2013-06-20 08:50:00,69.6,59.8,30.02,West,272,0.0,2.0,71,0.00,,SKC,0.00,VWS V14.01,2013-06-20 13:50:00,
2013-06-20 08:54:00,69.5,59.7,30.02,West,271,1.0,1.0,71,0.00,,SKC,0.00,VWS V14.01,2013-06-20 13:54:00,
2013-06-20 08:55:00,69.5,60.1,30.02,West,279,1.0,1.0,72,0.00,,SKC,0.00,VWS V14.01,2013-06-20 13:55:00,
2013-06-20 08:59:00,69.6,59.8,30.02,West,280,0.0,3.0,71,0.00,,SKC,0.00,VWS V14.01,2013-06-20 13:59:00,
2013-06-20 09:00:00,69.6,59.8,30.02,West,265,1.0,3.0,71,0.00,,SKC,0.00,VWS V14.01,2013-06-20 14:00:00,
2013-06-20 09:04:00,69.6,59.8,30.02,West,269,0.0,2.0,71,0.00,,SKC,0.00,VWS V14.01,2013-06-20 14:04:00,
2013-06-20 09:05:00,69.7,60.3,30.02,West,269,0.0,2.0,72,0.00,,SKC,0.00,VWS V14.01,2013-06-20 14:05:00,
2013-06-20 09:09:00,69.8,60.0,30.02,West,279,2.0,2.0,71,0.00,,SKC,0.00,VWS V14.01,2013-06-20 14:09:00,
2013-06-20 09:10:00,69.7,59.9,30.02,WNW,299,4.0,4.0,71,0.00,,SKC,0.00,VWS V14.01,2013-06-20 14:10:00,
2013-06-20 09:14:00,69.6,59.8,30.03,SW,225,2.0,5.0,71,0.00,,SKC,0.00,VWS V14.01,2013-06-20 14:14:00,
2013-06-20 09:15:00,69.6,59.8,30.03,West,272,1.0,5.0,71,0.00,,SKC,0.00,VWS V14.01,2013-06-20 14:15:00,
2013-06-20 09:19:00,69.6,59.8,30.03,South,175,0.0,3.0,71,0.00,,SKC,0.00,VWS V14.01,2013-06-20 14:19:00,
2013-06-20 09:20:00,69.6,60.2,30.03,South,178,0.0,3.0,72,0.00,,SKC,0.00,VWS V14.01,2013-06-20 14:20:00,
2013-06-20 09:24:00,69.5,59.7,30.03,WSW,256,0.0,3.0,71,0.00,,SKC,0.00,VWS V14.01,2013-06-20 14:24:00,
2013-06-20 09:25:00,69.5,59.7,30.03,West,272,2.0,3.0,71,0.00,,SKC,0.00,VWS V14.01,2013-06-20 14:25:00,
2013-06-20 09:29:00,69.2,60.2,30.03,West,275,1.0,3.0,73,0.00,,SKC,0.00,VWS V14.01,2013-06-20 14:29:00,
2013-06-20 09:30:00,69.1,60.1,30.03,West,267,1.0,3.0,73,0.00,,SKC,0.00,VWS V14.01,2013-06-20 14:30:00,
2013-06-20 09:34:00,68.7,59.7,30.03,West,261,2.0,4.0,73,0.00,,SKC,0.00,VWS V14.01,2013-06-20 14:34:00,
2013-06-20 09:35:00,68.6,59.6,30.03,West,275,3.0,7.0,73,0.00,,SKC,0.00,VWS V14.01,2013-06-20 14:35:00,
2013-06-20 09:39:00,68.2,59.2,30.03,WSW,241,1.0,4.0,73,0.00,,SKC,0.00,VWS V14.01,2013-06-20 14:39:00,
2013-06-20 09:40:00,68.2,59.2,30.03,SW,222,0.0,4.0,73,0.00,,SKC,0.00,VWS V14.01,2013-06-20 14:40:00,
2013-06-20 09:44:00,68.0,59.4,30.03,West,272,0.0,2.0,74,0.00,,SKC,0.00,VWS V14.01,2013-06-20 14:44:00,
2013-06-20 09:45:00,67.9,59.7,30.03,West,276,2.0,2.0,75,0.00,,SKC,0.00,VWS V14.01,2013-06-20 14:45:00,
2013-06-20 09:49:00,67.7,59.1,30.03,WNW,290,0.0,3.0,74,0.00,,SKC,0.00,VWS V14.01,2013-06-20 14:49:00,
2013-06-20 09:50:00,67.7,59.1,30.03,WNW,290,0.0,3.0,74,0.00,,SKC,0.00,VWS V14.01,2013-06-20 14:50:00,
2013-06-20 09:54:00,67.6,59.4,30.03,West,276,2.0,3.0,75,0.00,,SKC,0.00,VWS V14.01,2013-06-20 14:54:00,
2013-06-20 09:55:00,67.6,59.4,30.03,West,264,0.0,3.0,75,0.00,,SKC,0.00,VWS V14.01,2013-06-20 14:55:00,
2013-06-20 09:59:00,67.5,59.3,30.04,West,269,0.0,2.0,75,0.00,,SKC,0.00,VWS V14.01,2013-06-20 14:59:00,
2013-06-20 10:00:00,67.5,59.3,30.04,West,269,1.0,2.0,75,0.00,,SKC,0.00,VWS V14.01,2013-06-20 15:00:00,
2013-06-20 10:04:00,67.4,59.6,30.04,West,269,0.0,1.0,76,0.00,,SKC,0.00,VWS V14.01,2013-06-20 15:04:00,
2013-06-20 10:05:00,67.4,59.6,30.04,West,269,0.0,1.0,76,0.00,,SKC,0.00,VWS V14.01,2013-06-20 15:05:00,
2013-06-20 10:09:00,67.5,59.7,30.04,West,269,0.0,0.0,76,0.00,,SKC,0.00,VWS V14.01,2013-06-20 15:09:00,
2013-06-20 10:10:00,67.5,59.7,30.04,West,271,0.0,0.0,76,0.00,,SKC,0.00,VWS V14.01,2013-06-20 15:10:00,
2013-06-20 10:14:00,67.5,60.0,30.04,West,267,0.0,1.0,77,0.00,,SKC,0.00,VWS V14.01,2013-06-20 15:14:00,
2013-06-20 10:15:00,67.5,60.0,30.04,West,267,0.0,1.0,77,0.00,,SKC,0.00,VWS V14.01,2013-06-20 15:15:00,
2013-06-20 10:19:00,67.5,59.7,30.04,WNW,283,0.0,0.0,76,0.00,,SKC,0.00,VWS V14.01,2013-06-20 15:19:00,
2013-06-20 10:20:00,67.5,59.7,30.04,WNW,283,0.0,0.0,76,0.00,,SKC,0.00,VWS V14.01,2013-06-20 15:20:00,
2013-06-20 10:24:00,67.5,60.0,30.04,West,280,0.0,1.0,77,0.00,,SKC,0.00,VWS V14.01,2013-06-20 15:24:00,
2013-06-20 10:25:00,67.5,60.0,30.04,West,279,0.0,1.0,77,0.00,,SKC,0.00,VWS V14.01,2013-06-20 15:25:00,
2013-06-20 10:29:00,67.6,60.1,30.03,West,280,0.0,1.0,77,0.00,,SKC,0.00,VWS V14.01,2013-06-20 15:29:00,
2013-06-20 10:30:00,67.6,60.1,30.03,West,279,0.0,1.0,77,0.00,,SKC,0.00,VWS V14.01,2013-06-20 15:30:00,
2013-06-20 10:34:00,67.7,60.2,30.03,West,279,1.0,1.0,77,0.00,,SKC,0.00,VWS V14.01,2013-06-20 15:34:00,
2013-06-20 10:35:00,67.7,60.2,30.03,West,280,1.0,1.0,77,0.00,,SKC,0.00,VWS V14.01,2013-06-20 15:35:00,
2013-06-20 10:39:00,67.9,60.4,30.03,West,267,0.0,1.0,77,0.00,,SKC,0.00,VWS V14.01,2013-06-20 15:39:00,
2013-06-20 10:40:00,67.9,60.4,30.03,West,268,0.0,1.0,77,0.00,,SKC,0.00,VWS V14.01,2013-06-20 15:40:00,
2013-06-20 10:44:00,68.5,61.0,30.03,SE,141,2.0,2.0,77,0.00,,SKC,0.00,VWS V14.01,2013-06-20 15:44:00,
2013-06-20 10:45:00,68.5,61.0,30.03,SSE,160,2.0,2.0,77,0.00,,SKC,0.00,VWS V14.01,2013-06-20 15:45:00,
2013-06-20 10:49:00,69.2,60.6,30.03,South,169,0.0,3.0,74,0.00,,SKC,0.00,VWS V14.01,2013-06-20 15:49:00,
2013-06-20 10:50:00,69.2,60.6,30.03,South,169,0.0,3.0,74,0.00,,SKC,0.00,VWS V14.01,2013-06-20 15:50:00,
2013-06-20 10:54:00,69.7,61.4,30.03,SW,229,1.0,2.0,75,0.00,,SKC,0.00,VWS V14.01,2013-06-20 15:54:00,
2013-06-20 10:55:00,69.7,61.4,30.03,SW,229,0.0,2.0,75,0.00,,SKC,0.00,VWS V14.01,2013-06-20 15:55:00,
2013-06-20 10:59:00,69.9,60.9,30.04,West,265,1.0,2.0,73,0.00,,SKC,0.00,VWS V14.01,2013-06-20 15:59:00,
2013-06-20 11:00:00,69.9,60.9,30.04,West,265,0.0,2.0,73,0.00,,SKC,0.00,VWS V14.01,2013-06-20 16:00:00,
2013-06-20 11:05:00,70.1,61.4,30.04,WNW,286,2.0,2.0,74,0.00,,SKC,0.00,VWS V14.01,2013-06-20 16:05:00,
2013-06-20 11:10:00,70.4,61.0,30.04,WNW,295,5.0,5.0,72,0.00,,SKC,0.00,VWS V14.01,2013-06-20 16:10:00,
2013-06-20 11:15:00,70.7,61.6,30.04,West,275,2.0,3.0,73,0.00,,SKC,0.00,VWS V14.01,2013-06-20 16:15:00,
2013-06-20 11:20:00,70.8,61.3,30.04,West,277,1.0,3.0,72,0.00,,SKC,0.00,VWS V14.01,2013-06-20 16:20:00,
2013-06-20 11:25:00,71.0,61.5,30.04,West,276,1.0,2.0,72,0.00,,SKC,0.00,VWS V14.01,2013-06-20 16:25:00,
2013-06-20 11:30:00,71.8,62.3,30.04,NNW,346,1.0,1.0,72,0.00,,SKC,0.00,VWS V14.01,2013-06-20 16:30:00,
2013-06-20 11:35:00,72.0,61.7,30.04,West,267,0.0,3.0,70,0.00,,SKC,0.00,VWS V14.01,2013-06-20 16:35:00,
2013-06-20 11:40:00,72.3,61.6,30.04,NE,37,1.0,2.0,69,0.00,,SKC,0.00,VWS V14.01,2013-06-20 16:40:00,
2013-06-20 11:45:00,72.8,61.6,30.03,ESE,105,0.0,2.0,68,0.00,,SKC,0.00,VWS V14.01,2013-06-20 16:45:00,
2013-06-20 11:50:00,72.7,61.5,30.03,SE,138,1.0,2.0,68,0.00,,SKC,0.00,VWS V14.01,2013-06-20 16:50:00,
2013-06-20 11:55:00,72.3,61.2,30.03,NW,319,1.0,5.0,68,0.00,,SKC,0.00,VWS V14.01,2013-06-20 16:55:00,
2013-06-20 12:00:00,72.7,62.0,30.03,NE,46,0.0,2.0,69,0.00,,SKC,0.00,VWS V14.01,2013-06-20 17:00:00,
2013-06-20 12:05:00,74.0,63.6,30.03,NE,46,0.0,0.0,70,0.00,,SKC,0.00,VWS V14.01,2013-06-20 17:05:00,
2013-06-20 12:10:00,74.7,62.6,30.03,NE,46,0.0,0.0,66,0.00,,SKC,0.00,VWS V14.01,2013-06-20 17:10:00,
2013-06-20 12:15:00,75.6,63.5,30.03,WSW,237,1.0,1.0,66,0.00,,SKC,0.00,VWS V14.01,2013-06-20 17:15:00,
2013-06-20 12:20:00,76.0,63.0,30.03,WNW,283,2.0,2.0,64,0.00,,SKC,0.00,VWS V14.01,2013-06-20 17:20:00,
2013-06-20 12:25:00,76.4,62.9,30.03,SE,133,1.0,1.0,63,0.00,,SKC,0.00,VWS V14.01,2013-06-20 17:25:00,
2013-06-20 12:30:00,77.2,64.5,30.03,East,94,1.0,1.0,65,0.00,,SKC,0.00,VWS V14.01,2013-06-20 17:30:00,
2013-06-20 12:35:00,78.0,63.9,30.03,WSW,257,0.0,1.0,62,0.00,,SKC,0.00,VWS V14.01,2013-06-20 17:35:00,
2013-06-20 12:40:00,79.0,63.9,30.03,ESE,111,2.0,3.0,60,0.00,,SKC,0.00,VWS V14.01,2013-06-20 17:40:00,
2013-06-20 12:45:00,79.3,64.7,30.03,WSW,256,0.0,0.0,61,0.00,,SKC,0.00,VWS V14.01,2013-06-20 17:45:00,
2013-06-20 12:50:00,80.2,64.6,30.03,ENE,76,1.0,2.0,59,0.00,,SKC,0.00,VWS V14.01,2013-06-20 17:50:00,
2013-06-20 12:55:00,80.6,64.0,30.03,South,191,1.0,2.0,57,0.00,,SKC,0.00,VWS V14.01,2013-06-20 17:55:00,
2013-06-20 13:00:00,81.6,64.9,30.02,NE,44,0.0,0.0,57,0.00,,SKC,0.00,VWS V14.01,2013-06-20 18:00:00,
2013-06-20 13:05:00,82.4,64.1,30.02,NNE,24,0.0,1.0,54,0.00,,SKC,0.00,VWS V14.01,2013-06-20 18:05:00,
2013-06-20 13:10:00,82.2,63.4,30.02,SE,132,2.0,2.0,53,0.00,,SKC,0.00,VWS V14.01,2013-06-20 18:10:00,
2013-06-20 13:15:00,81.6,62.3,30.01,WSW,256,1.0,1.0,52,0.00,,SKC,0.00,VWS V14.01,2013-06-20 18:15:00,
2013-06-20 13:20:00,82.0,62.7,30.01,SE,126,1.0,3.0,52,0.00,,SKC,0.00,VWS V14.01,2013-06-20 18:20:00,
2013-06-20 13:25:00,82.3,62.4,30.01,ESE,117,0.0,1.0,51,0.00,,SKC,0.00,VWS V14.01,2013-06-20 18:25:00,
2013-06-20 13:30:00,83.2,64.3,30.01,SW,232,1.0,1.0,53,0.00,,SKC,0.00,VWS V14.01,2013-06-20 18:30:00,
2013-06-20 13:35:00,83.6,63.6,30.01,SSE,164,4.0,5.0,51,0.00,,SKC,0.00,VWS V14.01,2013-06-20 18:35:00,
2013-06-20 13:40:00,83.4,63.4,30.01,WNW,286,1.0,5.0,51,0.00,,SKC,0.00,VWS V14.01,2013-06-20 18:40:00,
2013-06-20 13:41:00,83.4,64.0,30.01,SSE,153,3.0,4.0,52,0.00,,SKC,0.00,VWS V14.01,2013-06-20 18:41:00,
2013-06-20 13:45:00,83.0,62.5,30.01,ESE,113,2.0,5.0,50,0.00,,SKC,0.00,VWS V14.01,2013-06-20 18:45:00,
2013-06-20 13:46:00,82.9,62.4,30.01,SSE,156,3.0,4.0,50,0.00,,SKC,0.00,VWS V14.01,2013-06-20 18:46:00,
2013-06-20 13:50:00,82.5,62.6,30.01,SW,227,0.0,4.0,51,0.00,,SKC,0.00,VWS V14.01,2013-06-20 18:50:00,
2013-06-20 13:51:00,82.5,63.1,30.01,SW,223,2.0,2.0,52,0.00,,SKC,0.00,VWS V14.01,2013-06-20 18:51:00,
2013-06-20 13:55:00,82.3,62.9,30.01,SW,234,2.0,4.0,52,0.00,,SKC,0.00,VWS V14.01,2013-06-20 18:55:00,
2013-06-20 13:56:00,82.2,62.8,30.01,ESE,114,2.0,3.0,52,0.00,,SKC,0.00,VWS V14.01,2013-06-20 18:56:00,
2013-06-20 14:00:00,82.0,62.7,30.00,South,176,2.0,4.0,52,0.00,,SKC,0.00,VWS V14.01,2013-06-20 19:00:00,
2013-06-20 14:01:00,82.0,62.7,30.00,SE,142,1.0,3.0,52,0.00,,SKC,0.00,VWS V14.01,2013-06-20 19:01:00,
2013-06-20 14:05:00,82.0,62.7,30.00,SE,141,0.0,4.0,52,0.00,,SKC,0.00,VWS V14.01,2013-06-20 19:05:00,
2013-06-20 14:06:00,82.2,62.8,30.00,SE,145,1.0,3.0,52,0.00,,SKC,0.00,VWS V14.01,2013-06-20 19:06:00,
2013-06-20 14:10:00,82.4,63.0,30.00,SW,232,1.0,4.0,52,0.00,,SKC,0.00,VWS V14.01,2013-06-20 19:10:00,
2013-06-20 14:11:00,82.5,63.7,30.00,SW,215,0.0,1.0,53,0.00,,SKC,0.00,VWS V14.01,2013-06-20 19:11:00,
2013-06-20 14:15:00,83.0,64.1,30.00,SSW,194,1.0,1.0,53,0.00,,SKC,0.00,VWS V14.01,2013-06-20 19:15:00,
2013-06-20 14:16:00,83.3,64.9,30.00,SSW,194,0.0,1.0,54,0.00,,SKC,0.00,VWS V14.01,2013-06-20 19:16:00,
2013-06-20 14:20:00,83.0,61.9,30.00,West,273,1.0,6.0,49,0.00,,SKC,0.00,VWS V14.01,2013-06-20 19:20:00,
2013-06-20 14:21:00,82.8,62.3,30.00,WSW,246,3.0,3.0,50,0.00,,SKC,0.00,VWS V14.01,2013-06-20 19:21:00,
2013-06-20 14:25:00,82.6,62.7,30.00,SE,141,2.0,4.0,51,0.00,,SKC,0.00,VWS V14.01,2013-06-20 19:25:00,
2013-06-20 14:26:00,82.7,62.8,30.00,East,80,2.0,4.0,51,0.00,,SKC,0.00,VWS V14.01,2013-06-20 19:26:00,
2013-06-20 14:30:00,82.7,62.8,30.00,ESE,105,2.0,4.0,51,0.00,,SKC,0.00,VWS V14.01,2013-06-20 19:30:00,
2013-06-20 14:31:00,82.6,62.1,30.00,SE,138,2.0,2.0,50,0.00,,SKC,0.00,VWS V14.01,2013-06-20 19:31:00,
2013-06-20 14:35:00,82.4,63.0,30.00,WSW,257,1.0,5.0,52,0.00,,SKC,0.00,VWS V14.01,2013-06-20 19:35:00,
2013-06-20 14:36:00,82.3,62.4,30.00,SW,234,2.0,3.0,51,0.00,,SKC,0.00,VWS V14.01,2013-06-20 19:36:00,
2013-06-20 14:40:00,81.9,63.1,30.00,ESE,107,0.0,3.0,53,0.00,,SKC,0.00,VWS V14.01,2013-06-20 19:40:00,
2013-06-20 14:41:00,81.9,63.6,30.00,SW,232,0.0,1.0,54,0.00,,SKC,0.00,VWS V14.01,2013-06-20 19:41:00,
2013-06-20 14:45:00,82.0,61.5,29.99,South,178,2.0,5.0,50,0.00,,SKC,0.00,VWS V14.01,2013-06-20 19:45:00,
2013-06-20 14:46:00,82.2,62.8,29.99,SW,221,1.0,2.0,52,0.00,,SKC,0.00,VWS V14.01,2013-06-20 19:46:00,
2013-06-20 14:50:00,82.3,62.4,29.99,SW,227,1.0,5.0,51,0.00,,SKC,0.00,VWS V14.01,2013-06-20 19:50:00,
2013-06-20 14:51:00,82.3,62.4,29.99,ESE,113,1.0,4.0,51,0.00,,SKC,0.00,VWS V14.01,2013-06-20 19:51:00,
2013-06-20 14:55:00,82.1,62.8,29.99,SSE,147,2.0,4.0,52,0.00,,SKC,0.00,VWS V14.01,2013-06-20 19:55:00,
2013-06-20 14:56:00,82.0,62.1,29.99,SE,129,1.0,2.0,51,0.00,,SKC,0.00,VWS V14.01,2013-06-20 19:56:00,
2013-06-20 15:00:00,81.4,62.1,29.99,ESE,113,1.0,3.0,52,0.00,,SKC,0.00,VWS V14.01,2013-06-20 20:00:00,
2013-06-20 15:01:00,81.2,61.9,29.99,SSE,152,1.0,1.0,52,0.00,,SKC,0.00,VWS V14.01,2013-06-20 20:01:00,
2013-06-20 15:05:00,80.7,62.0,29.99,ESE,119,1.0,3.0,53,0.00,,SKC,0.00,VWS V14.01,2013-06-20 20:05:00,
2013-06-20 15:06:00,80.4,61.2,29.99,ESE,114,1.0,3.0,52,0.00,,SKC,0.00,VWS V14.01,2013-06-20 20:06:00,
2013-06-20 15:10:00,80.0,61.3,29.99,SE,138,6.0,6.0,53,0.00,,SKC,0.00,VWS V14.01,2013-06-20 20:10:00,
2013-06-20 15:11:00,79.8,60.6,29.99,ESE,109,2.0,6.0,52,0.00,,SKC,0.00,VWS V14.01,2013-06-20 20:11:00,
2013-06-20 15:15:00,79.5,60.9,29.99,SSE,152,1.0,6.0,53,0.00,,SKC,0.00,VWS V14.01,2013-06-20 20:15:00,
2013-06-20 15:16:00,79.5,60.9,29.99,ESE,113,2.0,5.0,53,0.00,,SKC,0.00,VWS V14.01,2013-06-20 20:16:00,
2013-06-20 15:20:00,79.3,63.3,29.99,SE,138,0.0,5.0,58,0.00,,SKC,0.00,VWS V14.01,2013-06-20 20:20:00,
2013-06-20 15:21:00,78.9,62.9,29.99,SE,139,0.0,0.0,58,0.00,,SKC,0.00,VWS V14.01,2013-06-20 20:21:00,
2013-06-20 15:25:00,78.4,63.8,29.99,West,269,0.0,2.0,61,0.00,,SKC,0.00,VWS V14.01,2013-06-20 20:25:00,
2013-06-20 15:26:00,78.2,63.7,29.99,West,269,1.0,1.0,61,0.00,,SKC,0.00,VWS V14.01,2013-06-20 20:26:00,
2013-06-20 15:30:00,78.0,63.0,29.98,SE,136,1.0,1.0,60,0.00,,SKC,0.00,VWS V14.01,2013-06-20 20:30:00,
2013-06-20 15:31:00,77.9,62.4,29.98,SSW,202,1.0,2.0,59,0.00,,SKC,0.00,VWS V14.01,2013-06-20 20:31:00,
2013-06-20 15:35:00,78.0,63.5,29.98,East,83,2.0,3.0,61,0.00,,SKC,0.00,VWS V14.01,2013-06-20 20:35:00,
2013-06-20 15:36:00,77.9,63.4,29.98,SSE,160,0.0,2.0,61,0.00,,SKC,0.00,VWS V14.01,2013-06-20 20:36:00,
2013-06-20 15:40:00,77.6,63.1,29.98,SSW,202,2.0,3.0,61,0.00,,SKC,0.00,VWS V14.01,2013-06-20 20:40:00,
2013-06-20 15:41:00,77.5,61.6,29.98,SE,134,2.0,2.0,58,0.00,,SKC,0.00,VWS V14.01,2013-06-20 20:41:00,
2013-06-20 15:45:00,77.6,62.6,29.98,SSW,194,1.0,4.0,60,0.00,,SKC,0.00,VWS V14.01,2013-06-20 20:45:00,
2013-06-20 15:47:00,77.7,61.8,29.98,SW,217,1.0,5.0,58,0.00,,SKC,0.00,VWS V14.01,2013-06-20 20:47:00,
2013-06-20 15:50:00,77.8,61.8,29.98,WSW,249,3.0,8.0,58,0.00,,SKC,0.00,VWS V14.01,2013-06-20 20:50:00,
2013-06-20 15:52:00,77.8,61.9,29.98,SE,132,1.0,4.0,58,0.00,,SKC,0.00,VWS V14.01,2013-06-20 20:52:00,
2013-06-20 15:55:00,77.8,61.4,29.98,SW,223,1.0,4.0,57,0.00,,SKC,0.00,VWS V14.01,2013-06-20 20:55:00,
2013-06-20 15:57:00,77.8,61.4,29.98,SSE,155,3.0,3.0,57,0.00,,SKC,0.00,VWS V14.01,2013-06-20 20:57:00,
2013-06-20 16:00:00,77.8,62.3,29.98,West,264,1.0,5.0,59,0.00,,SKC,0.00,VWS V14.01,2013-06-20 21:00:00,
2013-06-20 16:02:00,77.5,63.0,29.98,West,265,5.0,5.0,61,0.00,,SKC,0.00,VWS V14.01,2013-06-20 21:02:00,
2013-06-20 16:05:00,76.2,63.6,29.98,WSW,257,2.0,6.0,65,0.00,,SKC,0.00,VWS V14.01,2013-06-20 21:05:00,
2013-06-20 16:07:00,75.1,63.4,29.98,West,272,2.0,3.0,67,0.00,,SKC,0.00,VWS V14.01,2013-06-20 21:07:00,
2013-06-20 16:10:00,73.5,63.5,29.98,West,269,2.0,4.0,71,0.01,,SKC,0.01,VWS V14.01,2013-06-20 21:10:00,
2013-06-20 16:12:00,72.7,63.9,29.98,West,280,2.0,2.0,74,0.01,,SKC,0.01,VWS V14.01,2013-06-20 21:12:00,
2013-06-20 16:15:00,71.6,64.0,29.99,WSW,240,0.0,3.0,77,0.01,,SKC,0.01,VWS V14.01,2013-06-20 21:15:00,
2013-06-20 16:17:00,71.1,64.3,29.99,West,264,1.0,2.0,79,0.01,,SKC,0.01,VWS V14.01,2013-06-20 21:17:00,
2013-06-20 16:20:00,70.7,64.2,29.99,West,261,1.0,2.0,80,0.01,,SKC,0.01,VWS V14.01,2013-06-20 21:20:00,
2013-06-20 16:22:00,70.5,64.0,29.99,West,264,1.0,1.0,80,0.01,,SKC,0.01,VWS V14.01,2013-06-20 21:22:00,
2013-06-20 16:25:00,70.4,64.3,29.99,West,266,1.0,2.0,81,0.01,,SKC,0.01,VWS V14.01,2013-06-20 21:25:00,
2013-06-20 16:27:00,70.3,64.2,29.99,WSW,250,0.0,2.0,81,0.01,,SKC,0.01,VWS V14.01,2013-06-20 21:27:00,
2013-06-20 16:30:00,70.1,64.0,29.99,ESE,110,0.0,2.0,81,0.01,,SKC,0.01,VWS V14.01,2013-06-20 21:30:00,
2013-06-20 16:32:00,70.1,64.7,29.99,South,173,0.0,2.0,83,0.01,,SKC,0.01,VWS V14.01,2013-06-20 21:32:00,
2013-06-20 16:35:00,70.0,64.9,29.99,South,173,0.0,2.0,84,0.01,,SKC,0.01,VWS V14.01,2013-06-20 21:35:00,
2013-06-20 16:37:00,69.8,64.4,29.99,ESE,110,0.0,1.0,83,0.01,,SKC,0.01,VWS V14.01,2013-06-20 21:37:00,
2013-06-20 16:40:00,69.8,65.1,29.99,ESE,110,0.0,1.0,85,0.01,,SKC,0.01,VWS V14.01,2013-06-20 21:40:00,
2013-06-20 16:42:00,69.7,65.3,29.99,ESE,110,0.0,0.0,86,0.01,,SKC,0.01,VWS V14.01,2013-06-20 21:42:00,
2013-06-20 16:45:00,69.6,65.6,29.98,ESE,110,0.0,0.0,87,0.01,,SKC,0.01,VWS V14.01,2013-06-20 21:45:00,
2013-06-20 16:47:00,69.4,65.4,29.98,ESE,110,0.0,0.0,87,0.01,,SKC,0.01,VWS V14.01,2013-06-20 21:47:00,
2013-06-20 16:50:00,69.4,66.0,29.98,ESE,111,0.0,0.0,89,0.01,,SKC,0.01,VWS V14.01,2013-06-20 21:50:00,
2013-06-20 16:52:00,69.4,65.7,29.98,ESE,110,0.0,0.0,88,0.01,,SKC,0.01,VWS V14.01,2013-06-20 21:52:00,
2013-06-20 16:55:00,69.4,66.0,29.98,ESE,110,0.0,0.0,89,0.01,,SKC,0.01,VWS V14.01,2013-06-20 21:55:00,
2013-06-20 16:57:00,69.5,66.1,29.98,ESE,110,0.0,0.0,89,0.01,,SKC,0.01,VWS V14.01,2013-06-20 21:57:00,
2013-06-20 17:00:00,69.4,66.0,29.98,ESE,111,0.0,0.0,89,0.01,,SKC,0.01,VWS V14.01,2013-06-20 22:00:00,
2013-06-20 17:02:00,69.5,65.8,29.98,ESE,110,0.0,0.0,88,0.01,,SKC,0.01,VWS V14.01,2013-06-20 22:02:00,
2013-06-20 17:05:00,69.7,66.0,29.98,ESE,110,0.0,0.0,88,0.01,,SKC,0.01,VWS V14.01,2013-06-20 22:05:00,
2013-06-20 17:07:00,69.9,66.2,29.98,ESE,111,0.0,0.0,88,0.01,,SKC,0.01,VWS V14.01,2013-06-20 22:07:00,
2013-06-20 17:10:00,70.2,66.5,29.98,ESE,110,0.0,0.0,88,0.01,,SKC,0.01,VWS V14.01,2013-06-20 22:10:00,
2013-06-20 17:12:00,70.5,66.4,29.98,ESE,110,0.0,0.0,87,0.00,,SKC,0.01,VWS V14.01,2013-06-20 22:12:00,
2013-06-20 17:15:00,70.7,65.3,29.98,SSE,167,0.0,0.0,83,0.00,,SKC,0.01,VWS V14.01,2013-06-20 22:15:00,
2013-06-20 17:17:00,71.0,66.3,29.98,SSE,167,0.0,0.0,85,0.00,,SKC,0.01,VWS V14.01,2013-06-20 22:17:00,
2013-06-20 17:20:00,71.2,66.1,29.98,SSE,167,0.0,0.0,84,0.00,,SKC,0.01,VWS V14.01,2013-06-20 22:20:00,
2013-06-20 17:22:00,71.1,65.3,29.98,SSE,167,0.0,0.0,82,0.00,,SKC,0.01,VWS V14.01,2013-06-20 22:22:00,
2013-06-20 17:25:00,71.2,65.4,29.98,SSE,167,0.0,0.0,82,0.00,,SKC,0.01,VWS V14.01,2013-06-20 22:25:00,
2013-06-20 17:27:00,71.3,65.5,29.98,SSE,167,0.0,0.0,82,0.00,,SKC,0.01,VWS V14.01,2013-06-20 22:27:00,
2013-06-20 17:30:00,71.5,65.7,29.98,SSE,167,0.0,0.0,82,0.00,,SKC,0.01,VWS V14.01,2013-06-20 22:30:00,
2013-06-20 17:32:00,71.7,65.9,29.98,SSE,167,0.0,0.0,82,0.00,,SKC,0.01,VWS V14.01,2013-06-20 22:32:00,
2013-06-20 17:35:00,71.9,66.5,29.98,SSE,167,0.0,0.0,83,0.00,,SKC,0.01,VWS V14.01,2013-06-20 22:35:00,
2013-06-20 17:37:00,72.0,66.6,29.98,SSE,167,0.0,0.0,83,0.00,,SKC,0.01,VWS V14.01,2013-06-20 22:37:00,
2013-06-20 17:40:00,72.0,66.2,29.98,SSE,167,0.0,0.0,82,0.00,,SKC,0.01,VWS V14.01,2013-06-20 22:40:00,
2013-06-20 17:42:00,72.0,66.2,29.98,SSE,167,0.0,0.0,82,0.00,,SKC,0.01,VWS V14.01,2013-06-20 22:42:00,
2013-06-20 17:45:00,71.9,65.8,29.98,SSE,167,0.0,0.0,81,0.00,,SKC,0.01,VWS V14.01,2013-06-20 22:45:00,
2013-06-20 17:47:00,71.8,65.7,29.98,SSE,167,0.0,0.0,81,0.00,,SKC,0.01,VWS V14.01,2013-06-20 22:47:00,
2013-06-20 17:50:00,71.8,66.0,29.98,SSE,167,0.0,0.0,82,0.00,,SKC,0.01,VWS V14.01,2013-06-20 22:50:00,
2013-06-20 17:52:00,71.8,66.0,29.98,SSE,167,0.0,0.0,82,0.00,,SKC,0.01,VWS V14.01,2013-06-20 22:52:00,
2013-06-20 17:55:00,71.7,65.9,29.98,SSE,167,0.0,0.0,82,0.00,,SKC,0.01,VWS V14.01,2013-06-20 22:55:00,
2013-06-20 17:57:00,71.7,66.3,29.98,SSE,167,0.0,0.0,83,0.00,,SKC,0.01,VWS V14.01,2013-06-20 22:57:00,
2013-06-20 18:00:00,71.5,66.4,29.98,SSE,167,0.0,0.0,84,0.00,,SKC,0.01,VWS V14.01,2013-06-20 23:00:00,
2013-06-20 18:02:00,71.2,66.1,29.98,SSE,167,0.0,0.0,84,0.00,,SKC,0.01,VWS V14.01,2013-06-20 23:02:00,
2013-06-20 18:05:00,71.1,66.4,29.98,SSE,167,0.0,0.0,85,0.00,,SKC,0.01,VWS V14.01,2013-06-20 23:05:00,
2013-06-20 18:07:00,71.0,66.6,29.98,SSE,166,0.0,0.0,86,0.00,,SKC,0.01,VWS V14.01,2013-06-20 23:07:00,
2013-06-20 18:10:00,70.9,66.5,29.98,SSE,167,0.0,0.0,86,0.00,,SKC,0.01,VWS V14.01,2013-06-20 23:10:00,
2013-06-20 18:12:00,70.8,66.7,29.98,SSE,167,0.0,0.0,87,0.00,,SKC,0.01,VWS V14.01,2013-06-20 23:12:00,
2013-06-20 18:15:00,70.7,67.0,29.98,SSE,167,0.0,0.0,88,0.00,,SKC,0.01,VWS V14.01,2013-06-20 23:15:00,
2013-06-20 18:18:00,70.4,67.0,29.98,SSE,167,0.0,0.0,89,0.00,,SKC,0.01,VWS V14.01,2013-06-20 23:18:00,
2013-06-20 18:20:00,70.2,66.8,29.98,SSE,167,0.0,0.0,89,0.01,,SKC,0.02,VWS V14.01,2013-06-20 23:20:00,
2013-06-20 18:23:00,70.0,66.6,29.98,SSE,167,0.0,0.0,89,0.01,,SKC,0.02,VWS V14.01,2013-06-20 23:23:00,
2013-06-20 18:25:00,69.9,66.8,29.98,SSE,167,0.0,0.0,90,0.01,,SKC,0.02,VWS V14.01,2013-06-20 23:25:00,
2013-06-20 18:28:00,69.8,66.7,29.98,SSE,167,0.0,0.0,90,0.01,,SKC,0.02,VWS V14.01,2013-06-20 23:28:00,
2013-06-20 18:30:00,69.9,67.2,29.97,SSE,167,0.0,0.0,91,0.01,,SKC,0.02,VWS V14.01,2013-06-20 23:30:00,
2013-06-20 18:33:00,70.0,67.3,29.97,SSE,167,0.0,0.0,91,0.01,,SKC,0.02,VWS V14.01,2013-06-20 23:33:00,
2013-06-20 18:35:00,70.1,67.4,29.97,SSE,167,0.0,0.0,91,0.01,,SKC,0.02,VWS V14.01,2013-06-20 23:35:00,
2013-06-20 18:38:00,70.2,67.4,29.97,SSE,167,0.0,0.0,91,0.01,,SKC,0.02,VWS V14.01,2013-06-20 23:38:00,
2013-06-20 18:40:00,70.3,67.6,29.97,SSE,167,0.0,0.0,91,0.01,,SKC,0.02,VWS V14.01,2013-06-20 23:40:00,
2013-06-20 18:43:00,70.4,67.3,29.97,SSE,167,0.0,0.0,90,0.01,,SKC,0.02,VWS V14.01,2013-06-20 23:43:00,
2013-06-20 18:45:00,70.4,67.3,29.97,SSE,167,0.0,0.0,90,0.01,,SKC,0.02,VWS V14.01,2013-06-20 23:45:00,
2013-06-20 18:48:00,70.5,67.1,29.97,SSE,167,0.0,0.0,89,0.01,,SKC,0.02,VWS V14.01,2013-06-20 23:48:00,
2013-06-20 18:50:00,70.5,67.1,29.97,SSE,167,0.0,0.0,89,0.01,,SKC,0.02,VWS V14.01,2013-06-20 23:50:00,
2013-06-20 18:53:00,70.3,66.9,29.97,SSE,167,0.0,0.0,89,0.01,,SKC,0.02,VWS V14.01,2013-06-20 23:53:00,
2013-06-20 18:55:00,70.3,67.2,29.97,SSE,167,0.0,0.0,90,0.01,,SKC,0.02,VWS V14.01,2013-06-20 23:55:00,
2013-06-20 18:58:00,70.4,67.3,29.97,SSE,167,0.0,0.0,90,0.01,,SKC,0.02,VWS V14.01,2013-06-20 23:58:00,
2013-06-20 19:00:00,70.4,67.3,29.98,SSE,167,0.0,0.0,90,0.01,,SKC,0.02,VWS V14.01,2013-06-21 00:00:00,
2013-06-20 19:03:00,70.3,67.2,29.98,SSE,167,0.0,0.0,90,0.01,,SKC,0.02,VWS V14.01,2013-06-21 00:03:00,
2013-06-20 19:05:00,70.2,66.8,29.98,SSE,167,0.0,0.0,89,0.01,,SKC,0.02,VWS V14.01,2013-06-21 00:05:00,
2013-06-20 19:08:00,70.0,66.6,29.98,SSE,167,0.0,0.0,89,0.01,,SKC,0.02,VWS V14.01,2013-06-21 00:08:00,
2013-06-20 19:10:00,70.0,66.6,29.98,SSE,167,0.0,0.0,89,0.01,,SKC,0.02,VWS V14.01,2013-06-21 00:10:00,
2013-06-20 19:13:00,69.8,66.7,29.98,SSE,167,0.0,0.0,90,0.01,,SKC,0.02,VWS V14.01,2013-06-21 00:13:00,
2013-06-20 19:15:00,69.8,66.7,29.98,SSE,167,0.0,0.0,90,0.01,,SKC,0.02,VWS V14.01,2013-06-21 00:15:00,
2013-06-20 19:18:00,69.6,66.9,29.98,SSE,167,0.0,0.0,91,0.01,,SKC,0.02,VWS V14.01,2013-06-21 00:18:00,
2013-06-20 19:20:00,69.5,66.8,29.98,SSE,167,0.0,0.0,91,0.01,,SKC,0.02,VWS V14.01,2013-06-21 00:20:00,
2013-06-20 19:23:00,69.4,67.0,29.98,SSE,167,0.0,0.0,92,0.00,,SKC,0.02,VWS V14.01,2013-06-21 00:23:00,
2013-06-20 19:25:00,69.4,66.7,29.98,SSE,167,0.0,0.0,91,0.00,,SKC,0.02,VWS V14.01,2013-06-21 00:25:00,
2013-06-20 19:28:00,69.2,66.5,29.98,SSE,167,0.0,0.0,91,0.00,,SKC,0.02,VWS V14.01,2013-06-21 00:28:00,
2013-06-20 19:30:00,69.2,66.5,29.98,SSE,167,0.0,0.0,91,0.00,,SKC,0.02,VWS V14.01,2013-06-21 00:30:00,
2013-06-20 19:33:00,69.1,66.4,29.98,SSE,167,0.0,0.0,91,0.00,,SKC,0.02,VWS V14.01,2013-06-21 00:33:00,
2013-06-20 19:35:00,69.1,66.4,29.98,SSE,167,0.0,0.0,91,0.00,,SKC,0.02,VWS V14.01,2013-06-21 00:35:00,
2013-06-20 19:38:00,69.0,65.9,29.98,SSE,167,0.0,0.0,90,0.00,,SKC,0.02,VWS V14.01,2013-06-21 00:38:00,
2013-06-20 19:40:00,68.9,65.8,29.98,SSE,167,0.0,0.0,90,0.00,,SKC,0.02,VWS V14.01,2013-06-21 00:40:00,
2013-06-20 19:43:00,68.8,65.8,29.98,SSE,167,0.0,0.0,90,0.00,,SKC,0.02,VWS V14.01,2013-06-21 00:43:00,
2013-06-20 19:45:00,68.8,65.8,29.99,SSE,167,0.0,0.0,90,0.00,,SKC,0.02,VWS V14.01,2013-06-21 00:45:00,
2013-06-20 19:48:00,68.8,65.8,29.99,SSE,167,0.0,0.0,90,0.00,,SKC,0.02,VWS V14.01,2013-06-21 00:48:00,
2013-06-20 19:50:00,68.8,65.8,29.99,SSE,167,0.0,0.0,90,0.00,,SKC,0.02,VWS V14.01,2013-06-21 00:50:00,
2013-06-20 19:53:00,68.7,65.7,29.99,SSE,167,0.0,0.0,90,0.00,,SKC,0.02,VWS V14.01,2013-06-21 00:53:00,
2013-06-20 19:55:00,68.7,65.7,29.99,ENE,59,0.0,0.0,90,0.00,,SKC,0.02,VWS V14.01,2013-06-21 00:55:00,
2013-06-20 19:58:00,68.5,65.1,29.99,ENE,57,2.0,3.0,89,0.00,,SKC,0.02,VWS V14.01,2013-06-21 00:58:00,
2013-06-20 20:00:00,68.4,65.4,29.99,NNE,28,0.0,3.0,90,0.00,,SKC,0.02,VWS V14.01,2013-06-21 01:00:00,
2013-06-20 20:03:00,68.2,65.2,29.99,ENE,65,0.0,4.0,90,0.00,,SKC,0.02,VWS V14.01,2013-06-21 01:03:00,
2013-06-20 20:05:00,68.1,65.1,29.99,East,101,0.0,4.0,90,0.00,,SKC,0.02,VWS V14.01,2013-06-21 01:05:00,
2013-06-20 20:08:00,67.8,64.8,29.99,ENE,70,0.0,0.0,90,0.00,,SKC,0.02,VWS V14.01,2013-06-21 01:08:00,
2013-06-20 20:10:00,67.7,64.7,29.99,East,80,0.0,5.0,90,0.00,,SKC,0.02,VWS V14.01,2013-06-21 01:10:00,
2013-06-20 20:13:00,67.6,64.9,29.99,NE,55,0.0,6.0,91,0.00,,SKC,0.02,VWS V14.01,2013-06-21 01:13:00,
2013-06-20 20:15:00,67.5,64.8,29.99,NE,55,0.0,6.0,91,0.00,,SKC,0.02,VWS V14.01,2013-06-21 01:15:00,
2013-06-20 20:18:00,67.4,64.7,29.99,NE,55,0.0,0.0,91,0.00,,SKC,0.02,VWS V14.01,2013-06-21 01:18:00,
2013-06-20 20:20:00,67.3,64.6,29.99,ESE,105,0.0,0.0,91,0.00,,SKC,0.02,VWS V14.01,2013-06-21 01:20:00,
2013-06-20 20:23:00,67.2,64.5,29.99,ENE,72,4.0,4.0,91,0.00,,SKC,0.02,VWS V14.01,2013-06-21 01:23:00,
2013-06-20 20:25:00,67.2,64.5,29.99,ENE,66,0.0,4.0,91,0.00,,SKC,0.02,VWS V14.01,2013-06-21 01:25:00,
2013-06-20 20:28:00,67.0,64.3,29.99,ENE,65,1.0,3.0,91,0.00,,SKC,0.02,VWS V14.01,2013-06-21 01:28:00,
2013-06-20 20:30:00,67.0,64.3,30.00,ENE,64,1.0,3.0,91,0.00,,SKC,0.02,VWS V14.01,2013-06-21 01:30:00,
2013-06-20 20:33:00,66.9,64.2,30.00,ENE,65,0.0,1.0,91,0.00,,SKC,0.02,VWS V14.01,2013-06-21 01:33:00,
2013-06-20 20:35:00,66.9,64.5,30.00,ENE,65,0.0,1.0,92,0.00,,SKC,0.02,VWS V14.01,2013-06-21 01:35:00,
2013-06-20 20:38:00,66.8,64.4,30.00,NW,314,0.0,0.0,92,0.00,,SKC,0.02,VWS V14.01,2013-06-21 01:38:00,
2013-06-20 20:40:00,66.8,64.4,30.00,NNW,329,0.0,0.0,92,0.00,,SKC,0.02,VWS V14.01,2013-06-21 01:40:00,
2013-06-20 20:44:00,66.7,64.3,30.00,NNW,329,0.0,1.0,92,0.00,,SKC,0.02,VWS V14.01,2013-06-21 01:44:00,
2013-06-20 20:45:00,66.7,64.3,30.00,NE,34,0.0,1.0,92,0.00,,SKC,0.02,VWS V14.01,2013-06-21 01:45:00,
2013-06-20 20:49:00,66.6,64.5,30.00,NE,34,0.0,0.0,93,0.00,,SKC,0.02,VWS V14.01,2013-06-21 01:49:00,
2013-06-20 20:50:00,66.6,64.5,30.00,NE,34,0.0,0.0,93,0.00,,SKC,0.02,VWS V14.01,2013-06-21 01:50:00,
2013-06-20 20:54:00,66.4,64.3,30.00,NE,34,0.0,0.0,93,0.01,,SKC,0.03,VWS V14.01,2013-06-21 01:54:00,
2013-06-20 20:55:00,66.3,64.2,30.00,NE,34,0.0,0.0,93,0.01,,SKC,0.03,VWS V14.01,2013-06-21 01:55:00,
2013-06-20 20:59:00,66.1,64.3,30.00,NE,39,0.0,0.0,94,0.01,,SKC,0.03,VWS V14.01,2013-06-21 01:59:00,
2013-06-20 21:00:00,66.0,64.2,30.01,NE,39,0.0,0.0,94,0.01,,SKC,0.03,VWS V14.01,2013-06-21 02:00:00,
2013-06-20 21:04:00,65.8,64.0,30.01,ENE,75,1.0,2.0,94,0.02,,SKC,0.04,VWS V14.01,2013-06-21 02:04:00,
2013-06-20 21:05:00,65.8,64.3,30.01,NE,51,1.0,2.0,95,0.02,,SKC,0.04,VWS V14.01,2013-06-21 02:05:00,
2013-06-20 21:09:00,65.6,64.1,30.01,NE,38,2.0,3.0,95,0.03,,SKC,0.05,VWS V14.01,2013-06-21 02:09:00,
2013-06-20 21:10:00,65.5,64.0,30.01,ENE,65,2.0,3.0,95,0.03,,SKC,0.05,VWS V14.01,2013-06-21 02:10:00,
2013-06-20 21:14:00,65.4,63.9,30.01,NE,41,0.0,3.0,95,0.04,,SKC,0.06,VWS V14.01,2013-06-21 02:14:00,
2013-06-20 21:15:00,65.3,63.8,30.01,NE,34,1.0,3.0,95,0.04,,SKC,0.06,VWS V14.01,2013-06-21 02:15:00,
2013-06-20 21:19:00,65.2,64.0,30.01,East,81,1.0,3.0,96,0.04,,SKC,0.06,VWS V14.01,2013-06-21 02:19:00,
2013-06-20 21:20:00,65.2,64.0,30.01,East,79,1.0,3.0,96,0.04,,SKC,0.06,VWS V14.01,2013-06-21 02:20:00,
2013-06-20 21:24:00,65.1,63.9,30.01,ENE,65,0.0,5.0,96,0.04,,SKC,0.06,VWS V14.01,2013-06-21 02:24:00,
2013-06-20 21:25:00,65.0,63.8,30.01,ENE,65,1.0,5.0,96,0.04,,SKC,0.06,VWS V14.01,2013-06-21 02:25:00,
2013-06-20 21:29:00,65.0,63.8,30.02,NE,41,1.0,3.0,96,0.05,,SKC,0.07,VWS V14.01,2013-06-21 02:29:00,
2013-06-20 21:30:00,64.9,63.7,30.02,NNW,329,0.0,3.0,96,0.05,,SKC,0.07,VWS V14.01,2013-06-21 02:30:00,
2013-06-20 21:34:00,64.9,63.7,30.02,West,279,0.0,3.0,96,0.06,,SKC,0.08,VWS V14.01,2013-06-21 02:34:00,
2013-06-20 21:35:00,64.9,63.7,30.02,ESE,115,0.0,3.0,96,0.06,,SKC,0.08,VWS V14.01,2013-06-21 02:35:00,
2013-06-20 21:39:00,64.8,63.9,30.02,SW,222,0.0,0.0,97,0.08,,SKC,0.10,VWS V14.01,2013-06-21 02:39:00,
2013-06-20 21:40:00,64.8,63.9,30.02,SW,222,0.0,0.0,97,0.08,,SKC,0.10,VWS V14.01,2013-06-21 02:40:00,
2013-06-20 21:44:00,64.7,63.8,30.05,NNW,343,0.0,0.0,97,0.10,,SKC,0.12,VWS V14.01,2013-06-21 02:44:00,
2013-06-20 21:45:00,64.7,63.8,30.05,NNW,343,0.0,0.0,97,0.10,,SKC,0.12,VWS V14.01,2013-06-21 02:45:00,
2013-06-20 21:49:00,64.7,63.8,30.05,NNW,343,0.0,0.0,97,0.12,,SKC,0.14,VWS V14.01,2013-06-21 02:49:00,
2013-06-20 21:50:00,64.7,63.8,30.05,NNW,343,0.0,0.0,97,0.13,,SKC,0.15,VWS V14.01,2013-06-21 02:50:00,
2013-06-20 21:54:00,64.7,63.8,30.05,NE,43,0.0,1.0,97,0.17,,SKC,0.19,VWS V14.01,2013-06-21 02:54:00,
2013-06-20 21:55:00,64.7,63.8,30.05,NE,42,0.0,1.0,97,0.17,,SKC,0.19,VWS V14.01,2013-06-21 02:55:00,
2013-06-20 21:59:00,64.6,63.7,30.05,NE,47,0.0,0.0,97,0.20,,SKC,0.23,VWS V14.01,2013-06-21 02:59:00,
2013-06-20 22:00:00,64.6,63.7,30.05,NE,46,0.0,0.0,97,0.20,,SKC,0.23,VWS V14.01,2013-06-21 03:00:00,
2013-06-20 22:04:00,64.5,63.6,30.05,ENE,76,0.0,0.0,97,0.22,,SKC,0.25,VWS V14.01,2013-06-21 03:04:00,
2013-06-20 22:05:00,64.4,63.5,30.05,ENE,75,0.0,0.0,97,0.22,,SKC,0.25,VWS V14.01,2013-06-21 03:05:00,
2013-06-20 22:09:00,64.4,63.5,30.05,ENE,57,0.0,0.0,97,0.23,,SKC,0.27,VWS V14.01,2013-06-21 03:09:00,
2013-06-20 22:10:00,64.3,63.4,30.05,NE,56,0.0,0.0,97,0.23,,SKC,0.27,VWS V14.01,2013-06-21 03:10:00,
2013-06-20 22:14:00,64.3,63.4,30.06,ESE,123,0.0,3.0,97,0.24,,SKC,0.29,VWS V14.01,2013-06-21 03:14:00,
2013-06-20 22:15:00,64.3,63.4,30.06,ESE,122,0.0,3.0,97,0.24,,SKC,0.29,VWS V14.01,2013-06-21 03:15:00,
2013-06-20 22:19:00,64.3,63.4,30.06,ESE,123,0.0,0.0,97,0.25,,SKC,0.31,VWS V14.01,2013-06-21 03:19:00,
2013-06-20 22:20:00,64.3,63.4,30.06,ESE,123,0.0,0.0,97,0.25,,SKC,0.31,VWS V14.01,2013-06-21 03:20:00,
2013-06-20 22:24:00,64.3,63.4,30.06,West,274,0.0,1.0,97,0.26,,SKC,0.32,VWS V14.01,2013-06-21 03:24:00,
2013-06-20 22:25:00,64.3,63.4,30.06,West,275,0.0,1.0,97,0.26,,SKC,0.32,VWS V14.01,2013-06-21 03:25:00,
2013-06-20 22:29:00,64.2,63.3,30.07,West,275,0.0,0.0,97,0.27,,SKC,0.33,VWS V14.01,2013-06-21 03:29:00,
2013-06-20 22:30:00,64.2,63.6,30.07,West,275,0.0,0.0,98,0.27,,SKC,0.33,VWS V14.01,2013-06-21 03:30:00,
2013-06-20 22:34:00,64.2,63.6,30.07,West,273,0.0,0.0,98,0.29,,SKC,0.36,VWS V14.01,2013-06-21 03:34:00,
2013-06-20 22:35:00,64.2,63.3,30.07,West,273,0.0,0.0,97,0.29,,SKC,0.36,VWS V14.01,2013-06-21 03:35:00,
2013-06-20 22:39:00,64.0,63.1,30.07,ESE,117,0.0,0.0,97,0.31,,SKC,0.39,VWS V14.01,2013-06-21 03:39:00,
2013-06-20 22:40:00,64.0,63.1,30.07,ESE,118,0.0,0.0,97,0.31,,SKC,0.39,VWS V14.01,2013-06-21 03:40:00,
2013-06-20 22:44:00,63.9,63.3,30.03,SE,136,3.0,3.0,98,0.31,,SKC,0.41,VWS V14.01,2013-06-21 03:44:00,
2013-06-20 22:45:00,63.9,63.3,30.03,ESE,115,3.0,4.0,98,0.31,,SKC,0.41,VWS V14.01,2013-06-21 03:45:00,
2013-06-20 22:49:00,63.9,63.3,30.03,SE,128,2.0,3.0,98,0.31,,SKC,0.43,VWS V14.01,2013-06-21 03:49:00,
2013-06-20 22:50:00,63.9,63.3,30.03,SE,140,2.0,3.0,98,0.31,,SKC,0.43,VWS V14.01,2013-06-21 03:50:00,
2013-06-20 22:54:00,63.9,63.3,30.03,SE,133,2.0,2.0,98,0.29,,SKC,0.44,VWS V14.01,2013-06-21 03:54:00,
2013-06-20 22:55:00,63.8,63.2,30.03,SE,138,2.0,2.0,98,0.30,,SKC,0.45,VWS V14.01,2013-06-21 03:55:00,
2013-06-20 22:59:00,63.8,63.2,30.03,SSE,148,0.0,2.0,98,0.27,,SKC,0.46,VWS V14.01,2013-06-21 03:59:00,
2013-06-20 23:00:00,63.8,63.2,30.03,SE,144,0.0,2.0,98,0.27,,SKC,0.46,VWS V14.01,2013-06-21 04:00:00,
2013-06-20 23:01:00,63.8,63.2,30.03,SE,125,2.0,2.0,98,0.23,,SKC,0.46,VWS V14.01,2013-06-21 04:01:00,
2013-06-20 23:02:00,63.8,63.2,30.03,ESE,121,1.0,2.0,98,0.23,,SKC,0.46,VWS V14.01,2013-06-21 04:02:00,
2013-06-20 23:05:00,63.7,63.1,30.03,ESE,121,1.0,2.0,98,0.24,,SKC,0.47,VWS V14.01,2013-06-21 04:05:00,
2013-06-20 23:07:00,63.7,63.1,30.03,ESE,123,2.0,3.0,98,0.23,,SKC,0.48,VWS V14.01,2013-06-21 04:07:00,
2013-06-20 23:10:00,63.7,63.1,30.03,East,95,1.0,3.0,98,0.24,,SKC,0.49,VWS V14.01,2013-06-21 04:10:00,
2013-06-20 23:12:00,63.6,63.0,30.03,SW,217,0.0,1.0,98,0.23,,SKC,0.50,VWS V14.01,2013-06-21 04:12:00,
2013-06-20 23:15:00,63.5,62.9,30.04,SW,227,0.0,3.0,98,0.23,,SKC,0.50,VWS V14.01,2013-06-21 04:15:00,
2013-06-20 23:17:00,63.5,62.9,30.04,SW,227,0.0,1.0,98,0.22,,SKC,0.51,VWS V14.01,2013-06-21 04:17:00,
2013-06-20 23:20:00,63.6,63.0,30.04,SW,227,0.0,1.0,98,0.23,,SKC,0.52,VWS V14.01,2013-06-21 04:20:00,
2013-06-20 23:22:00,63.5,62.9,30.04,SW,227,0.0,0.0,98,0.22,,SKC,0.53,VWS V14.01,2013-06-21 04:22:00,
2013-06-20 23:25:00,63.6,63.0,30.04,SW,227,0.0,0.0,98,0.23,,SKC,0.54,VWS V14.01,2013-06-21 04:25:00,
2013-06-20 23:27:00,63.6,63.0,30.04,SW,227,0.0,0.0,98,0.23,,SKC,0.55,VWS V14.01,2013-06-21 04:27:00,
2013-06-20 23:30:00,63.5,62.9,30.06,SW,227,0.0,0.0,98,0.24,,SKC,0.56,VWS V14.01,2013-06-21 04:30:00,
2013-06-20 23:32:00,63.5,62.9,30.06,SW,227,0.0,0.0,98,0.23,,SKC,0.56,VWS V14.01,2013-06-21 04:32:00,
2013-06-20 23:35:00,63.5,62.9,30.06,SW,227,0.0,0.0,98,0.24,,SKC,0.57,VWS V14.01,2013-06-21 04:35:00,
2013-06-20 23:37:00,63.5,62.9,30.06,SW,227,0.0,0.0,98,0.22,,SKC,0.58,VWS V14.01,2013-06-21 04:37:00,
2013-06-20 23:40:00,63.4,62.8,30.06,SW,227,0.0,0.0,98,0.22,,SKC,0.58,VWS V14.01,2013-06-21 04:40:00,
2013-06-20 23:43:00,63.3,62.7,30.06,SW,227,0.0,0.0,98,0.20,,SKC,0.59,VWS V14.01,2013-06-21 04:43:00,
2013-06-20 23:45:00,63.3,62.7,30.04,SE,141,0.0,0.0,98,0.21,,SKC,0.60,VWS V14.01,2013-06-21 04:45:00,
2013-06-20 23:48:00,63.2,62.6,30.04,ESE,123,0.0,0.0,98,0.19,,SKC,0.60,VWS V14.01,2013-06-21 04:48:00,
2013-06-20 23:50:00,63.2,62.6,30.04,SE,125,2.0,3.0,98,0.20,,SKC,0.61,VWS V14.01,2013-06-21 04:50:00,
2013-06-20 23:53:00,63.2,62.6,30.04,SSE,155,1.0,4.0,98,0.18,,SKC,0.61,VWS V14.01,2013-06-21 04:53:00,
2013-06-20 23:55:00,63.2,62.6,30.04,ESE,119,2.0,4.0,98,0.18,,SKC,0.61,VWS V14.01,2013-06-21 04:55:00,
2013-06-20 23:58:00,63.3,62.7,30.04,SE,130,2.0,3.0,98,0.17,,SKC,0.62,VWS V14.01,2013-06-21 04:58:00,